Nearby METAR Reports

 

KTOP - Billard Municipal Airport, Topeka, Kansas, USA
Updated: Tue, 12-Nov-2019 3:53am CST
Clear
Clear
 Wind from WNW
Wind: WNW 5 mph , 7 km/h
Temperature: 9°F , -13°C
Wind Chill: 0°F , -18°C
Dew Point: 1°F , -17°C
Humidity: 72%
Barometer: 1039.3 hPa
Clouds: Clear
Visibility: 10 miles , 16 km
2019/11/12 09:53 KTOP 120953Z AUTO 30004KT 10SM CLR M13/M17 A3069 RMK AO2 SLP406 T11281167 $
KFOE - Forbes Field Airport, Topeka, Kansas, USA
Updated: Tue, 12-Nov-2019 3:53am CST
Clear
Clear
 Wind from NW
Wind: NW 7 mph , 11 km/h
Temperature: 7°F , -14°C
Wind Chill: -5°F , -21°C
Dew Point: -0°F , -18°C
Humidity: 72%
Barometer: 1038.6 hPa
Clouds: Clear
Visibility: 10 miles , 16 km
2019/11/12 09:53 KFOE 120953Z AUTO 32006KT 10SM CLR M14/M18 A3067 RMK AO2 SLP404 T11441178